Grelton, Ohio
Current Conditions -  °F | °C
As of 5:55 PM on Tuesday 25 Nov 2014 (Local Time) from KUSE Reporting Station
Overcast Overcast  
Wind Chill: 20°   Ceiling: 2300
Heat Index: 28°   Visibility: 10mi
Dew Point: 21°   Wind: 8mph
Humidity: 74%   Direction: 270°W
Pressure: 30.16"   Gusts: 15mph
Location:  41.34°N, 84°W
Report Text: KUSE 252255Z AUTO 27007G13KT 10SM OVC023 M02/M06 A3016 RMK AO2
Loading
Personal Weather Stations






























Interactive Weather Map New forecast layout! Learn more

10-Day Weather Forecast

Advertisements
Track Severe Weather on mobile